Het weer levert geen direct gevaar op.    Er zijn geen waarschuwingen afgegeven.


Onweer radar Meer informatie blitzortung!


Regen radar Meer informatie rain snow radar


Bezoek onze andere website:

Template documentation
and downloads

And another site



METAR rapporten vliegvelden

   
EBAW - Antwerp
Gewijzigd: 19-11-2018 01:20
Helder  
Helder  
   Wind: ONO 14.8 km/h
Wind: ONO 14.8 km/h
Temperatuur: 2°C
Voelt als: -2°C
Dauwpunt: -4°C
Vochtigheid: 65%
Barometer: 1024 hPa
Zicht: meer dan 10 km
Bewolking: Helder
EBAW 190020Z AUTO 06008KT CAVOK 02/M04 Q1024
EBLG - Li├Ęge
Gewijzigd: 19-11-2018 01:20
Helder  
Helder  
   Wind: ONO 18.5 km/h
Wind: ONO 18.5 km/h
Temperatuur: 0°C
Voelt als: -5°C
Dauwpunt: -5°C
Vochtigheid: 69%
Barometer: 1022 hPa
Zicht: meer dan 10 km
Bewolking: Helder
EBLG 190020Z 06010KT CAVOK M00/M05 Q1022 NOSIG
EBCV - Mons/Bergen
Gewijzigd: 19-11-2018 01:25
Helder  
Helder  
   Wind: ONO 18.5 km/h
Wind: ONO 18.5 km/h
Temperatuur: 1°C
Voelt als: -4°C
Dauwpunt: -4°C
Vochtigheid: 70%
Barometer: 1022 hPa
Bewolking: Helder
Zicht: meer dan 10 km
Bewolking: Helder
EBCV 190025Z AUTO 06010KT 9999 NCD 01/M04 Q1022 BLU
EHBK - Maastricht
Gewijzigd: 19-11-2018 01:25
Helder  
Helder  
   Wind: NO 18.5 km/h
Wind: NO 18.5 km/h
Temperatuur: 0°C
Voelt als: -5°C
Dauwpunt: -3°C
Vochtigheid: 80%
Barometer: 1023 hPa
Bewolking: Helder
Zicht: meer dan 10 km
Bewolking: Helder
EHBK 190025Z AUTO 05010KT 9999 NCD 00/M03 Q1023
ELLX - Luxemburg
Gewijzigd: 19-11-2018 01:20
Helder  
Helder  
   Wind: NO 25.9 km/h
Wind: NO 25.9 km/h
Temperatuur: 0°C
Voelt als: -6°C
Dauwpunt: -12°C
Vochtigheid: 40%
Barometer: 1018 hPa
Zicht: meer dan 10 km
Bewolking: Helder
ELLX 190020Z 04014KT CAVOK 00/M12 Q1018 NOSIG
EBOS - Oostende
Gewijzigd: 19-11-2018 01:20
Helder  
Helder  
   Wind: ONO 25.9 km/h
Wind: ONO 25.9 km/h
Temperatuur: 3°C
Voelt als: -2°C
Dauwpunt: -1°C
Vochtigheid: 75%
Barometer: 1024 hPa
Zicht: meer dan 10 km
Bewolking: Helder
EBOS 190020Z 07014KT CAVOK 03/M01 Q1024 NOSIG

Script ontwikkeld door  Saratoga-weather.org Aangepast voor de template door  Weerstation Leuven

U vindt ons ook hier:

Het Weer Aktueel

European Weather Network

Weather Underground

Benelux Weer Netwerk

Citizen Weather Observer Program (CWOP)

Apparatuur in gebruik:

Weerstation
Davis VP2

Weerprogramma
Weather Display

Weercomputer
My Computer

Webleverancier
WeservIT

Davis VP2

Weather Display

My Computer

WeservIT